sensor_id;sensor_type;location;lat;lon;timestamp;temperature;humidity
5743;DHT22;2896;53.500;10.020;2022-08-19T00:01:15;19.70;99.90
5743;DHT22;2896;53.500;10.020;2022-08-19T00:03:42;19.70;99.90
5743;DHT22;2896;53.500;10.020;2022-08-19T00:06:09;19.70;99.90
5743;DHT22;2896;53.500;10.020;2022-08-19T00:08:36;19.70;99.90
5743;DHT22;2896;53.500;10.020;2022-08-19T00:11:02;19.70;99.90
5743;DHT22;2896;53.500;10.020;2022-08-19T00:13:31;19.70;99.90
5743;DHT22;2896;53.500;10.020;2022-08-19T00:15:57;19.60;99.90
5743;DHT22;2896;53.500;10.020;2022-08-19T00:18:26;19.70;99.90
5743;DHT22;2896;53.500;10.020;2022-08-19T00:20:53;20.00;99.90
5743;DHT22;2896;53.500;10.020;2022-08-19T00:23:19;19.60;99.90
5743;DHT22;2896;53.500;10.020;2022-08-19T00:25:46;19.60;99.90
5743;DHT22;2896;53.500;10.020;2022-08-19T00:28:13;19.60;99.90
5743;DHT22;2896;53.500;10.020;2022-08-19T00:30:41;19.60;99.90
5743;DHT22;2896;53.500;10.020;2022-08-19T00:33:07;19.60;99.90
5743;DHT22;2896;53.500;10.020;2022-08-19T00:35:34;19.60;99.90
5743;DHT22;2896;53.500;10.020;2022-08-19T00:38:01;19.60;99.90
5743;DHT22;2896;53.500;10.020;2022-08-19T00:40:27;19.60;99.90
5743;DHT22;2896;53.500;10.020;2022-08-19T00:42:56;19.60;99.90
5743;DHT22;2896;53.500;10.020;2022-08-19T00:45:25;19.60;99.90
5743;DHT22;2896;53.500;10.020;2022-08-19T00:47:53;19.60;99.90
5743;DHT22;2896;53.500;10.020;2022-08-19T00:50:21;19.70;99.90
5743;DHT22;2896;53.500;10.020;2022-08-19T00:52:49;19.70;99.90
5743;DHT22;2896;53.500;10.020;2022-08-19T00:55:19;19.60;99.90
5743;DHT22;2896;53.500;10.020;2022-08-19T00:57:49;19.70;99.90
5743;DHT22;2896;53.500;10.020;2022-08-19T01:00:19;19.70;99.90
5743;DHT22;2896;53.500;10.020;2022-08-19T01:02:46;19.70;99.90
5743;DHT22;2896;53.500;10.020;2022-08-19T01:05:16;19.70;99.90
5743;DHT22;2896;53.500;10.020;2022-08-19T01:07:44;19.70;99.90
5743;DHT22;2896;53.500;10.020;2022-08-19T01:10:13;19.70;99.90
5743;DHT22;2896;53.500;10.020;2022-08-19T01:12:41;19.70;99.90
5743;DHT22;2896;53.500;10.020;2022-08-19T01:15:09;19.70;99.90
5743;DHT22;2896;53.500;10.020;2022-08-19T01:17:39;19.60;99.90
5743;DHT22;2896;53.500;10.020;2022-08-19T01:20:09;19.70;99.90
5743;DHT22;2896;53.500;10.020;2022-08-19T01:22:43;19.60;99.90
5743;DHT22;2896;53.500;10.020;2022-08-19T01:25:10;19.70;99.90
5743;DHT22;2896;53.500;10.020;2022-08-19T01:27:40;19.70;99.90
5743;DHT22;2896;53.500;10.020;2022-08-19T01:30:09;19.90;99.90
5743;DHT22;2896;53.500;10.020;2022-08-19T01:32:36;19.70;99.90
5743;DHT22;2896;53.500;10.020;2022-08-19T01:35:05;19.70;99.90
5743;DHT22;2896;53.500;10.020;2022-08-19T01:37:46;19.70;99.90
5743;DHT22;2896;53.500;10.020;2022-08-19T01:40:14;19.60;99.90
5743;DHT22;2896;53.500;10.020;2022-08-19T01:42:40;19.60;99.90
5743;DHT22;2896;53.500;10.020;2022-08-19T01:45:08;19.60;99.90
5743;DHT22;2896;53.500;10.020;2022-08-19T01:47:35;19.60;99.90
5743;DHT22;2896;53.500;10.020;2022-08-19T01:50:03;19.60;99.90
5743;DHT22;2896;53.500;10.020;2022-08-19T01:52:30;19.60;99.90
5743;DHT22;2896;53.500;10.020;2022-08-19T01:54:58;19.50;99.90
5743;DHT22;2896;53.500;10.020;2022-08-19T01:57:25;19.50;99.90
5743;DHT22;2896;53.500;10.020;2022-08-19T01:59:51;19.60;99.90
5743;DHT22;2896;53.500;10.020;2022-08-19T02:02:19;19.60;99.90
5743;DHT22;2896;53.500;10.020;2022-08-19T02:04:45;19.60;99.90
5743;DHT22;2896;53.500;10.020;2022-08-19T02:07:13;19.50;99.90
5743;DHT22;2896;53.500;10.020;2022-08-19T02:09:39;19.50;99.90
5743;DHT22;2896;53.500;10.020;2022-08-19T02:12:08;19.50;99.90
5743;DHT22;2896;53.500;10.020;2022-08-19T02:14:35;19.50;99.90
5743;DHT22;2896;53.500;10.020;2022-08-19T02:17:02;19.50;99.90
5743;DHT22;2896;53.500;10.020;2022-08-19T02:19:29;19.60;99.90
5743;DHT22;2896;53.500;10.020;2022-08-19T02:21:57;19.60;99.90
5743;DHT22;2896;53.500;10.020;2022-08-19T02:24:24;19.60;99.90
5743;DHT22;2896;53.500;10.020;2022-08-19T02:26:51;19.60;99.90
5743;DHT22;2896;53.500;10.020;2022-08-19T02:29:20;19.60;99.90
5743;DHT22;2896;53.500;10.020;2022-08-19T02:31:46;22.00;99.90
5743;DHT22;2896;53.500;10.020;2022-08-19T02:34:13;19.60;99.90
5743;DHT22;2896;53.500;10.020;2022-08-19T02:36:40;19.50;99.90
5743;DHT22;2896;53.500;10.020;2022-08-19T02:39:06;19.50;99.90
5743;DHT22;2896;53.500;10.020;2022-08-19T02:41:34;19.50;99.90
5743;DHT22;2896;53.500;10.020;2022-08-19T02:44:02;19.50;99.90
5743;DHT22;2896;53.500;10.020;2022-08-19T02:46:32;19.50;99.90
5743;DHT22;2896;53.500;10.020;2022-08-19T02:49:02;19.50;99.90
5743;DHT22;2896;53.500;10.020;2022-08-19T02:51:32;19.50;99.90
5743;DHT22;2896;53.500;10.020;2022-08-19T02:53:59;19.50;99.90
5743;DHT22;2896;53.500;10.020;2022-08-19T02:56:26;19.50;99.90
5743;DHT22;2896;53.500;10.020;2022-08-19T02:58:53;19.60;99.90
5743;DHT22;2896;53.500;10.020;2022-08-19T03:01:22;19.60;99.90
5743;DHT22;2896;53.500;10.020;2022-08-19T03:03:50;19.60;99.90
5743;DHT22;2896;53.500;10.020;2022-08-19T03:06:17;19.50;99.90
5743;DHT22;2896;53.500;10.020;2022-08-19T03:08:45;19.60;99.90
5743;DHT22;2896;53.500;10.020;2022-08-19T03:11:14;19.60;99.90
5743;DHT22;2896;53.500;10.020;2022-08-19T03:13:41;19.60;99.90
5743;DHT22;2896;53.500;10.020;2022-08-19T03:16:08;19.50;99.90
5743;DHT22;2896;53.500;10.020;2022-08-19T03:18:35;19.50;99.90
5743;DHT22;2896;53.500;10.020;2022-08-19T03:21:04;19.50;99.90
5743;DHT22;2896;53.500;10.020;2022-08-19T03:23:31;19.50;99.90
5743;DHT22;2896;53.500;10.020;2022-08-19T03:25:57;19.50;99.90
5743;DHT22;2896;53.500;10.020;2022-08-19T03:28:24;19.30;99.90
5743;DHT22;2896;53.500;10.020;2022-08-19T03:30:58;19.50;99.90
5743;DHT22;2896;53.500;10.020;2022-08-19T03:33:26;19.50;99.90
5743;DHT22;2896;53.500;10.020;2022-08-19T03:36:05;19.40;99.90
5743;DHT22;2896;53.500;10.020;2022-08-19T03:38:34;19.40;99.90
5743;DHT22;2896;53.500;10.020;2022-08-19T03:41:06;19.40;99.90
5743;DHT22;2896;53.500;10.020;2022-08-19T03:43:35;19.40;99.90
5743;DHT22;2896;53.500;10.020;2022-08-19T03:46:03;19.40;99.90
5743;DHT22;2896;53.500;10.020;2022-08-19T03:48:31;19.40;99.90
5743;DHT22;2896;53.500;10.020;2022-08-19T03:50:58;19.30;99.90
5743;DHT22;2896;53.500;10.020;2022-08-19T03:53:27;20.60;99.90
5743;DHT22;2896;53.500;10.020;2022-08-19T03:55:54;19.30;99.90
5743;DHT22;2896;53.500;10.020;2022-08-19T03:58:22;19.20;99.90
5743;DHT22;2896;53.500;10.020;2022-08-19T04:00:49;19.30;99.90
5743;DHT22;2896;53.500;10.020;2022-08-19T04:03:17;19.20;99.90
5743;DHT22;2896;53.500;10.020;2022-08-19T04:05:44;19.20;99.90
5743;DHT22;2896;53.500;10.020;2022-08-19T04:08:13;19.20;1.00
5743;DHT22;2896;53.500;10.020;2022-08-19T04:10:46;19.90;1.00
5743;DHT22;2896;53.500;10.020;2022-08-19T04:13:13;19.20;1.00
5743;DHT22;2896;53.500;10.020;2022-08-19T04:15:40;20.10;1.00
5743;DHT22;2896;53.500;10.020;2022-08-19T04:18:08;19.20;1.00
5743;DHT22;2896;53.500;10.020;2022-08-19T04:20:42;19.20;1.00
5743;DHT22;2896;53.500;10.020;2022-08-19T04:23:09;19.10;1.00
5743;DHT22;2896;53.500;10.020;2022-08-19T04:25:39;19.20;1.00
5743;DHT22;2896;53.500;10.020;2022-08-19T04:28:08;19.20;99.90
5743;DHT22;2896;53.500;10.020;2022-08-19T04:30:40;19.20;99.90
5743;DHT22;2896;53.500;10.020;2022-08-19T04:33:08;20.10;99.90
5743;DHT22;2896;53.500;10.020;2022-08-19T04:35:37;19.20;99.90
5743;DHT22;2896;53.500;10.020;2022-08-19T04:38:05;19.20;99.90
5743;DHT22;2896;53.500;10.020;2022-08-19T04:40:32;19.20;99.90
5743;DHT22;2896;53.500;10.020;2022-08-19T04:43:16;19.10;99.90
5743;DHT22;2896;53.500;10.020;2022-08-19T04:45:43;19.10;99.90
5743;DHT22;2896;53.500;10.020;2022-08-19T04:48:10;19.10;99.90
5743;DHT22;2896;53.500;10.020;2022-08-19T04:50:40;19.10;99.90
5743;DHT22;2896;53.500;10.020;2022-08-19T04:53:07;19.20;99.90
5743;DHT22;2896;53.500;10.020;2022-08-19T04:55:34;19.10;99.90
5743;DHT22;2896;53.500;10.020;2022-08-19T04:58:01;19.10;99.90
5743;DHT22;2896;53.500;10.020;2022-08-19T05:00:30;19.10;99.90
5743;DHT22;2896;53.500;10.020;2022-08-19T05:02:56;19.10;99.90
5743;DHT22;2896;53.500;10.020;2022-08-19T05:05:23;19.10;99.90
5743;DHT22;2896;53.500;10.020;2022-08-19T05:07:50;19.10;99.90
5743;DHT22;2896;53.500;10.020;2022-08-19T05:10:17;19.00;99.90
5743;DHT22;2896;53.500;10.020;2022-08-19T05:12:44;19.00;1.00
5743;DHT22;2896;53.500;10.020;2022-08-19T05:15:11;19.00;1.00
5743;DHT22;2896;53.500;10.020;2022-08-19T05:17:39;19.00;1.00
5743;DHT22;2896;53.500;10.020;2022-08-19T05:20:27;19.00;1.00
5743;DHT22;2896;53.500;10.020;2022-08-19T05:23:11;19.00;1.00
5743;DHT22;2896;53.500;10.020;2022-08-19T05:25:42;19.00;1.00
5743;DHT22;2896;53.500;10.020;2022-08-19T05:28:09;19.00;1.00
5743;DHT22;2896;53.500;10.020;2022-08-19T05:30:36;19.00;1.00
5743;DHT22;2896;53.500;10.020;2022-08-19T05:33:04;19.00;1.00
5743;DHT22;2896;53.500;10.020;2022-08-19T05:35:31;18.90;1.00
5743;DHT22;2896;53.500;10.020;2022-08-19T05:37:58;19.00;1.00
5743;DHT22;2896;53.500;10.020;2022-08-19T05:40:24;19.00;1.00
5743;DHT22;2896;53.500;10.020;2022-08-19T05:42:51;19.00;1.00
5743;DHT22;2896;53.500;10.020;2022-08-19T05:45:18;18.90;1.00
5743;DHT22;2896;53.500;10.020;2022-08-19T05:47:45;18.90;1.00
5743;DHT22;2896;53.500;10.020;2022-08-19T05:50:13;18.90;1.00
5743;DHT22;2896;53.500;10.020;2022-08-19T05:52:40;19.00;1.00
5743;DHT22;2896;53.500;10.020;2022-08-19T05:55:07;19.00;1.00
5743;DHT22;2896;53.500;10.020;2022-08-19T05:57:33;19.00;1.00
5743;DHT22;2896;53.500;10.020;2022-08-19T06:00:00;18.90;1.00
5743;DHT22;2896;53.500;10.020;2022-08-19T06:02:28;19.00;1.00
5743;DHT22;2896;53.500;10.020;2022-08-19T06:04:55;18.90;1.00
5743;DHT22;2896;53.500;10.020;2022-08-19T06:07:23;18.90;1.00
5743;DHT22;2896;53.500;10.020;2022-08-19T06:09:50;18.90;1.00
5743;DHT22;2896;53.500;10.020;2022-08-19T06:12:17;19.00;1.00
5743;DHT22;2896;53.500;10.020;2022-08-19T06:14:44;18.90;1.00
5743;DHT22;2896;53.500;10.020;2022-08-19T06:17:10;19.00;1.00
5743;DHT22;2896;53.500;10.020;2022-08-19T06:19:38;19.00;1.00
5743;DHT22;2896;53.500;10.020;2022-08-19T06:22:06;19.00;1.00
5743;DHT22;2896;53.500;10.020;2022-08-19T06:24:34;19.10;1.00
5743;DHT22;2896;53.500;10.020;2022-08-19T06:27:01;19.10;1.00
5743;DHT22;2896;53.500;10.020;2022-08-19T06:29:31;19.30;1.00
5743;DHT22;2896;53.500;10.020;2022-08-19T06:32:01;19.30;1.00
5743;DHT22;2896;53.500;10.020;2022-08-19T06:34:30;19.40;1.00
5743;DHT22;2896;53.500;10.020;2022-08-19T06:36:59;19.40;1.00
5743;DHT22;2896;53.500;10.020;2022-08-19T06:39:28;19.40;1.00
5743;DHT22;2896;53.500;10.020;2022-08-19T06:41:59;19.20;1.00
5743;DHT22;2896;53.500;10.020;2022-08-19T06:44:29;19.30;1.00
5743;DHT22;2896;53.500;10.020;2022-08-19T06:47:01;19.30;1.00
5743;DHT22;2896;53.500;10.020;2022-08-19T06:49:28;19.20;1.00
5743;DHT22;2896;53.500;10.020;2022-08-19T06:51:56;19.30;1.00
5743;DHT22;2896;53.500;10.020;2022-08-19T06:54:24;19.30;1.00
5743;DHT22;2896;53.500;10.020;2022-08-19T06:56:52;21.00;99.90
5743;DHT22;2896;53.500;10.020;2022-08-19T06:59:22;19.30;99.90
5743;DHT22;2896;53.500;10.020;2022-08-19T07:01:54;19.30;99.90
5743;DHT22;2896;53.500;10.020;2022-08-19T07:04:23;19.20;99.90
5743;DHT22;2896;53.500;10.020;2022-08-19T07:06:56;19.30;99.90
5743;DHT22;2896;53.500;10.020;2022-08-19T07:09:23;19.30;99.90
5743;DHT22;2896;53.500;10.020;2022-08-19T07:11:51;19.40;99.90
5743;DHT22;2896;53.500;10.020;2022-08-19T07:14:23;19.40;99.90
5743;DHT22;2896;53.500;10.020;2022-08-19T07:16:52;19.40;99.90
5743;DHT22;2896;53.500;10.020;2022-08-19T07:19:21;19.50;99.90
5743;DHT22;2896;53.500;10.020;2022-08-19T07:21:50;19.50;99.90
5743;DHT22;2896;53.500;10.020;2022-08-19T07:24:18;19.70;99.90
5743;DHT22;2896;53.500;10.020;2022-08-19T07:26:46;19.80;99.90
5743;DHT22;2896;53.500;10.020;2022-08-19T07:29:12;19.90;99.90
5743;DHT22;2896;53.500;10.020;2022-08-19T07:31:41;19.90;99.90
5743;DHT22;2896;53.500;10.020;2022-08-19T07:34:11;20.00;99.90
5743;DHT22;2896;53.500;10.020;2022-08-19T07:36:40;20.00;99.90
5743;DHT22;2896;53.500;10.020;2022-08-19T07:39:10;19.90;99.90
5743;DHT22;2896;53.500;10.020;2022-08-19T07:41:37;20.00;99.90
5743;DHT22;2896;53.500;10.020;2022-08-19T07:44:05;20.00;99.90
5743;DHT22;2896;53.500;10.020;2022-08-19T07:46:33;20.00;99.90
5743;DHT22;2896;53.500;10.020;2022-08-19T07:49:02;20.10;99.90
5743;DHT22;2896;53.500;10.020;2022-08-19T07:51:29;20.10;99.90
5743;DHT22;2896;53.500;10.020;2022-08-19T07:53:56;20.10;99.90
5743;DHT22;2896;53.500;10.020;2022-08-19T07:56:23;20.10;99.90
5743;DHT22;2896;53.500;10.020;2022-08-19T07:58:51;20.10;99.90
5743;DHT22;2896;53.500;10.020;2022-08-19T08:01:20;20.10;99.90
5743;DHT22;2896;53.500;10.020;2022-08-19T08:03:48;20.10;99.90
5743;DHT22;2896;53.500;10.020;2022-08-19T08:06:34;20.10;99.90
5743;DHT22;2896;53.500;10.020;2022-08-19T08:09:20;20.10;99.90
5743;DHT22;2896;53.500;10.020;2022-08-19T08:11:50;20.20;99.90
5743;DHT22;2896;53.500;10.020;2022-08-19T08:14:19;20.30;99.90
5743;DHT22;2896;53.500;10.020;2022-08-19T08:16:48;20.20;99.90
5743;DHT22;2896;53.500;10.020;2022-08-19T08:19:17;20.20;99.90
5743;DHT22;2896;53.500;10.020;2022-08-19T08:21:45;20.30;99.90
5743;DHT22;2896;53.500;10.020;2022-08-19T08:24:12;20.20;99.90
5743;DHT22;2896;53.500;10.020;2022-08-19T08:26:39;20.20;99.90
5743;DHT22;2896;53.500;10.020;2022-08-19T08:29:07;20.20;99.90
5743;DHT22;2896;53.500;10.020;2022-08-19T08:31:37;20.30;99.90
5743;DHT22;2896;53.500;10.020;2022-08-19T08:34:03;20.40;99.90
5743;DHT22;2896;53.500;10.020;2022-08-19T08:36:30;20.30;99.90
5743;DHT22;2896;53.500;10.020;2022-08-19T08:39:00;20.40;99.90
5743;DHT22;2896;53.500;10.020;2022-08-19T08:41:33;20.40;99.90
5743;DHT22;2896;53.500;10.020;2022-08-19T08:44:02;20.50;99.90
5743;DHT22;2896;53.500;10.020;2022-08-19T08:46:37;20.40;99.90
5743;DHT22;2896;53.500;10.020;2022-08-19T08:49:10;20.40;99.90
5743;DHT22;2896;53.500;10.020;2022-08-19T08:51:47;20.30;99.90
5743;DHT22;2896;53.500;10.020;2022-08-19T08:54:20;20.50;99.90
5743;DHT22;2896;53.500;10.020;2022-08-19T08:56:49;20.60;99.90
5743;DHT22;2896;53.500;10.020;2022-08-19T08:59:21;20.60;99.90
5743;DHT22;2896;53.500;10.020;2022-08-19T09:01:49;20.60;99.90
5743;DHT22;2896;53.500;10.020;2022-08-19T09:04:16;20.80;99.90
5743;DHT22;2896;53.500;10.020;2022-08-19T09:06:51;20.80;99.90
5743;DHT22;2896;53.500;10.020;2022-08-19T09:09:29;20.90;99.90
5743;DHT22;2896;53.500;10.020;2022-08-19T09:12:04;21.00;99.90
5743;DHT22;2896;53.500;10.020;2022-08-19T09:14:36;20.90;99.90
5743;DHT22;2896;53.500;10.020;2022-08-19T09:17:07;20.90;99.90
5743;DHT22;2896;53.500;10.020;2022-08-19T09:19:35;20.90;99.90
5743;DHT22;2896;53.500;10.020;2022-08-19T09:22:02;20.90;99.90
5743;DHT22;2896;53.500;10.020;2022-08-19T09:24:29;21.00;99.90
5743;DHT22;2896;53.500;10.020;2022-08-19T09:26:56;21.10;99.90
5743;DHT22;2896;53.500;10.020;2022-08-19T09:29:23;21.20;99.90
5743;DHT22;2896;53.500;10.020;2022-08-19T09:31:49;21.30;99.90
5743;DHT22;2896;53.500;10.020;2022-08-19T09:34:16;21.20;99.90
5743;DHT22;2896;53.500;10.020;2022-08-19T09:36:45;21.30;99.90
5743;DHT22;2896;53.500;10.020;2022-08-19T09:39:12;21.30;99.90
5743;DHT22;2896;53.500;10.020;2022-08-19T09:41:40;21.30;99.90
5743;DHT22;2896;53.500;10.020;2022-08-19T09:44:06;21.30;99.90
5743;DHT22;2896;53.500;10.020;2022-08-19T09:46:33;21.30;99.90
5743;DHT22;2896;53.500;10.020;2022-08-19T09:49:01;21.40;99.90
5743;DHT22;2896;53.500;10.020;2022-08-19T09:51:29;21.50;99.90
5743;DHT22;2896;53.500;10.020;2022-08-19T09:53:59;21.50;99.90
5743;DHT22;2896;53.500;10.020;2022-08-19T09:56:27;21.50;99.90
5743;DHT22;2896;53.500;10.020;2022-08-19T09:58:57;21.50;99.90
5743;DHT22;2896;53.500;10.020;2022-08-19T10:01:26;21.50;99.90
5743;DHT22;2896;53.500;10.020;2022-08-19T10:03:54;21.50;99.90
5743;DHT22;2896;53.500;10.020;2022-08-19T10:06:23;21.50;99.90
5743;DHT22;2896;53.500;10.020;2022-08-19T10:08:51;21.50;99.90
5743;DHT22;2896;53.500;10.020;2022-08-19T10:11:19;21.60;99.90
5743;DHT22;2896;53.500;10.020;2022-08-19T10:13:47;21.60;99.90
5743;DHT22;2896;53.500;10.020;2022-08-19T10:16:18;21.70;99.90
5743;DHT22;2896;53.500;10.020;2022-08-19T10:18:46;21.50;99.90
5743;DHT22;2896;53.500;10.020;2022-08-19T10:21:16;21.50;99.90
5743;DHT22;2896;53.500;10.020;2022-08-19T10:23:45;21.60;99.90
5743;DHT22;2896;53.500;10.020;2022-08-19T10:26:15;21.80;99.90
5743;DHT22;2896;53.500;10.020;2022-08-19T10:28:42;22.10;99.90
5743;DHT22;2896;53.500;10.020;2022-08-19T10:31:11;22.20;99.90
5743;DHT22;2896;53.500;10.020;2022-08-19T10:33:39;22.30;99.90
5743;DHT22;2896;53.500;10.020;2022-08-19T10:36:10;22.10;99.90
5743;DHT22;2896;53.500;10.020;2022-08-19T10:38:38;22.10;99.90
5743;DHT22;2896;53.500;10.020;2022-08-19T10:41:09;21.90;99.90
5743;DHT22;2896;53.500;10.020;2022-08-19T10:43:36;21.80;99.90
5743;DHT22;2896;53.500;10.020;2022-08-19T10:46:06;21.80;99.90
5743;DHT22;2896;53.500;10.020;2022-08-19T10:48:33;22.00;99.90
5743;DHT22;2896;53.500;10.020;2022-08-19T10:51:01;22.10;99.90
5743;DHT22;2896;53.500;10.020;2022-08-19T10:53:46;22.10;99.90
5743;DHT22;2896;53.500;10.020;2022-08-19T10:56:13;22.10;99.90
5743;DHT22;2896;53.500;10.020;2022-08-19T10:58:57;22.10;99.90
5743;DHT22;2896;53.500;10.020;2022-08-19T11:01:24;22.10;99.90
5743;DHT22;2896;53.500;10.020;2022-08-19T11:03:51;22.00;99.90
5743;DHT22;2896;53.500;10.020;2022-08-19T11:06:19;22.10;99.90
5743;DHT22;2896;53.500;10.020;2022-08-19T11:08:46;22.00;99.90
5743;DHT22;2896;53.500;10.020;2022-08-19T11:11:13;22.20;99.90
5743;DHT22;2896;53.500;10.020;2022-08-19T11:13:41;22.20;99.90
5743;DHT22;2896;53.500;10.020;2022-08-19T11:16:10;22.40;99.90
5743;DHT22;2896;53.500;10.020;2022-08-19T11:18:41;22.30;99.90
5743;DHT22;2896;53.500;10.020;2022-08-19T11:21:13;22.20;99.90
5743;DHT22;2896;53.500;10.020;2022-08-19T11:23:41;22.10;99.90
5743;DHT22;2896;53.500;10.020;2022-08-19T11:26:09;22.30;99.90
5743;DHT22;2896;53.500;10.020;2022-08-19T11:28:36;22.50;99.90
5743;DHT22;2896;53.500;10.020;2022-08-19T11:31:04;22.60;99.90
5743;DHT22;2896;53.500;10.020;2022-08-19T11:33:30;22.70;99.90
5743;DHT22;2896;53.500;10.020;2022-08-19T11:35:58;22.60;99.90
5743;DHT22;2896;53.500;10.020;2022-08-19T11:38:26;22.50;99.90
5743;DHT22;2896;53.500;10.020;2022-08-19T11:41:00;22.60;99.90
5743;DHT22;2896;53.500;10.020;2022-08-19T11:43:27;23.00;99.90
5743;DHT22;2896;53.500;10.020;2022-08-19T11:45:54;23.30;99.90
5743;DHT22;2896;53.500;10.020;2022-08-19T11:48:22;23.50;99.90
5743;DHT22;2896;53.500;10.020;2022-08-19T11:50:49;23.70;99.90
5743;DHT22;2896;53.500;10.020;2022-08-19T11:53:16;23.80;99.90
5743;DHT22;2896;53.500;10.020;2022-08-19T11:55:43;23.60;99.90
5743;DHT22;2896;53.500;10.020;2022-08-19T11:58:12;23.70;99.90
5743;DHT22;2896;53.500;10.020;2022-08-19T12:00:39;23.60;99.90
5743;DHT22;2896;53.500;10.020;2022-08-19T12:03:07;23.70;99.90
5743;DHT22;2896;53.500;10.020;2022-08-19T12:05:35;23.60;99.90
5743;DHT22;2896;53.500;10.020;2022-08-19T12:08:02;23.50;99.90
5743;DHT22;2896;53.500;10.020;2022-08-19T12:10:29;23.40;99.90
5743;DHT22;2896;53.500;10.020;2022-08-19T12:12:56;23.40;99.90
5743;DHT22;2896;53.500;10.020;2022-08-19T12:15:24;23.40;99.90
5743;DHT22;2896;53.500;10.020;2022-08-19T12:17:53;23.40;99.90
5743;DHT22;2896;53.500;10.020;2022-08-19T12:20:22;23.40;99.90
5743;DHT22;2896;53.500;10.020;2022-08-19T12:22:50;23.50;99.90
5743;DHT22;2896;53.500;10.020;2022-08-19T12:25:17;23.40;99.90
5743;DHT22;2896;53.500;10.020;2022-08-19T12:27:44;23.60;99.90
5743;DHT22;2896;53.500;10.020;2022-08-19T12:30:13;23.80;99.90
5743;DHT22;2896;53.500;10.020;2022-08-19T12:32:41;23.70;99.90
5743;DHT22;2896;53.500;10.020;2022-08-19T12:35:08;23.60;99.90
5743;DHT22;2896;53.500;10.020;2022-08-19T12:37:37;23.60;99.90
5743;DHT22;2896;53.500;10.020;2022-08-19T12:40:04;23.70;99.90
5743;DHT22;2896;53.500;10.020;2022-08-19T12:42:31;23.90;99.90
5743;DHT22;2896;53.500;10.020;2022-08-19T12:44:58;24.30;99.90
5743;DHT22;2896;53.500;10.020;2022-08-19T12:47:24;24.80;99.90
5743;DHT22;2896;53.500;10.020;2022-08-19T12:49:53;25.30;99.90
5743;DHT22;2896;53.500;10.020;2022-08-19T12:52:20;25.40;99.90
5743;DHT22;2896;53.500;10.020;2022-08-19T12:54:47;25.90;99.90
5743;DHT22;2896;53.500;10.020;2022-08-19T12:57:14;26.40;99.90
5743;DHT22;2896;53.500;10.020;2022-08-19T12:59:40;26.50;99.90
5743;DHT22;2896;53.500;10.020;2022-08-19T13:02:08;26.40;99.90
5743;DHT22;2896;53.500;10.020;2022-08-19T13:04:35;26.60;99.90
5743;DHT22;2896;53.500;10.020;2022-08-19T13:07:07;26.80;99.90
5743;DHT22;2896;53.500;10.020;2022-08-19T13:09:35;26.70;99.90
5743;DHT22;2896;53.500;10.020;2022-08-19T13:12:02;27.00;99.90
5743;DHT22;2896;53.500;10.020;2022-08-19T13:14:33;26.90;99.90
5743;DHT22;2896;53.500;10.020;2022-08-19T13:17:00;27.00;99.90
5743;DHT22;2896;53.500;10.020;2022-08-19T13:19:27;26.80;99.90
5743;DHT22;2896;53.500;10.020;2022-08-19T13:21:53;26.60;99.90
5743;DHT22;2896;53.500;10.020;2022-08-19T13:24:22;26.50;99.90
5743;DHT22;2896;53.500;10.020;2022-08-19T13:26:48;26.60;99.90
5743;DHT22;2896;53.500;10.020;2022-08-19T13:29:15;26.50;99.90
5743;DHT22;2896;53.500;10.020;2022-08-19T13:31:59;26.40;99.90
5743;DHT22;2896;53.500;10.020;2022-08-19T13:34:44;26.50;99.90
5743;DHT22;2896;53.500;10.020;2022-08-19T13:37:12;26.50;99.90
5743;DHT22;2896;53.500;10.020;2022-08-19T13:39:40;26.40;99.90
5743;DHT22;2896;53.500;10.020;2022-08-19T13:42:06;26.20;99.90
5743;DHT22;2896;53.500;10.020;2022-08-19T13:44:34;26.10;99.90
5743;DHT22;2896;53.500;10.020;2022-08-19T13:47:02;25.90;99.90
5743;DHT22;2896;53.500;10.020;2022-08-19T13:49:31;25.60;99.90
5743;DHT22;2896;53.500;10.020;2022-08-19T13:51:57;25.70;99.90
5743;DHT22;2896;53.500;10.020;2022-08-19T13:54:24;25.70;99.90
5743;DHT22;2896;53.500;10.020;2022-08-19T13:56:53;25.60;99.90
5743;DHT22;2896;53.500;10.020;2022-08-19T13:59:20;25.60;99.90
5743;DHT22;2896;53.500;10.020;2022-08-19T14:01:46;25.50;99.90
5743;DHT22;2896;53.500;10.020;2022-08-19T14:04:13;25.40;99.90
5743;DHT22;2896;53.500;10.020;2022-08-19T14:06:40;25.20;99.90
5743;DHT22;2896;53.500;10.020;2022-08-19T14:09:07;25.20;99.90
5743;DHT22;2896;53.500;10.020;2022-08-19T14:11:33;25.20;99.90
5743;DHT22;2896;53.500;10.020;2022-08-19T14:14:01;25.00;99.90
5743;DHT22;2896;53.500;10.020;2022-08-19T14:16:28;25.00;99.90
5743;DHT22;2896;53.500;10.020;2022-08-19T14:18:55;25.00;99.90
5743;DHT22;2896;53.500;10.020;2022-08-19T14:21:23;25.00;99.90
5743;DHT22;2896;53.500;10.020;2022-08-19T14:23:50;25.00;99.90
5743;DHT22;2896;53.500;10.020;2022-08-19T14:26:18;25.10;99.90
5743;DHT22;2896;53.500;10.020;2022-08-19T14:28:45;25.00;99.90
5743;DHT22;2896;53.500;10.020;2022-08-19T14:31:16;25.00;99.90
5743;DHT22;2896;53.500;10.020;2022-08-19T14:33:45;25.00;99.90
5743;DHT22;2896;53.500;10.020;2022-08-19T14:36:11;25.10;99.90
5743;DHT22;2896;53.500;10.020;2022-08-19T14:38:38;25.20;99.90
5743;DHT22;2896;53.500;10.020;2022-08-19T14:41:10;25.30;99.90
5743;DHT22;2896;53.500;10.020;2022-08-19T14:43:38;25.50;99.90
5743;DHT22;2896;53.500;10.020;2022-08-19T14:46:05;25.70;99.90
5743;DHT22;2896;53.500;10.020;2022-08-19T14:48:34;25.70;99.90
5743;DHT22;2896;53.500;10.020;2022-08-19T14:51:01;25.90;99.90
5743;DHT22;2896;53.500;10.020;2022-08-19T14:53:28;26.10;99.90
5743;DHT22;2896;53.500;10.020;2022-08-19T14:55:55;26.30;99.90
5743;DHT22;2896;53.500;10.020;2022-08-19T14:58:21;26.40;99.90
5743;DHT22;2896;53.500;10.020;2022-08-19T15:00:48;26.40;99.90
5743;DHT22;2896;53.500;10.020;2022-08-19T15:03:15;26.10;99.90
5743;DHT22;2896;53.500;10.020;2022-08-19T15:05:43;26.00;99.90
5743;DHT22;2896;53.500;10.020;2022-08-19T15:08:10;25.90;99.90
5743;DHT22;2896;53.500;10.020;2022-08-19T15:10:38;26.00;99.90
5743;DHT22;2896;53.500;10.020;2022-08-19T15:13:05;26.10;99.90
5743;DHT22;2896;53.500;10.020;2022-08-19T15:15:32;26.00;99.90
5743;DHT22;2896;53.500;10.020;2022-08-19T15:17:59;25.90;99.90
5743;DHT22;2896;53.500;10.020;2022-08-19T15:20:28;25.70;99.90
5743;DHT22;2896;53.500;10.020;2022-08-19T15:22:57;25.60;99.90
5743;DHT22;2896;53.500;10.020;2022-08-19T15:25:24;25.80;99.90
5743;DHT22;2896;53.500;10.020;2022-08-19T15:27:51;25.70;99.90
5743;DHT22;2896;53.500;10.020;2022-08-19T15:30:21;25.80;99.90
5743;DHT22;2896;53.500;10.020;2022-08-19T15:32:48;26.10;99.90
5743;DHT22;2896;53.500;10.020;2022-08-19T15:35:15;26.30;99.90
5743;DHT22;2896;53.500;10.020;2022-08-19T15:37:43;26.50;99.90
5743;DHT22;2896;53.500;10.020;2022-08-19T15:40:12;26.60;99.90
5743;DHT22;2896;53.500;10.020;2022-08-19T15:42:39;26.70;99.90
5743;DHT22;2896;53.500;10.020;2022-08-19T15:45:10;26.80;99.90
5743;DHT22;2896;53.500;10.020;2022-08-19T15:47:38;26.60;99.90
5743;DHT22;2896;53.500;10.020;2022-08-19T15:50:06;26.60;99.90
5743;DHT22;2896;53.500;10.020;2022-08-19T15:52:33;26.80;99.90
5743;DHT22;2896;53.500;10.020;2022-08-19T15:55:00;26.80;99.90